sensor_id;sensor_type;location;lat;lon;timestamp;P1;durP1;ratioP1;P2;durP2;ratioP2
9801;SDS011;4940;50.900;4.672;2022-11-20T00:01:33;26.53;;;13.63;;
9801;SDS011;4940;50.900;4.672;2022-11-20T00:04:01;28.17;;;14.03;;
9801;SDS011;4940;50.900;4.672;2022-11-20T00:06:28;29.50;;;14.17;;
9801;SDS011;4940;50.900;4.672;2022-11-20T00:08:56;26.43;;;13.20;;
9801;SDS011;4940;50.900;4.672;2022-11-20T00:11:25;29.60;;;14.83;;
9801;SDS011;4940;50.900;4.672;2022-11-20T00:13:55;29.23;;;13.77;;
9801;SDS011;4940;50.900;4.672;2022-11-20T00:16:25;29.97;;;14.23;;
9801;SDS011;4940;50.900;4.672;2022-11-20T00:18:53;29.77;;;15.10;;
9801;SDS011;4940;50.900;4.672;2022-11-20T00:21:21;24.97;;;13.90;;
9801;SDS011;4940;50.900;4.672;2022-11-20T00:23:49;30.13;;;14.33;;
9801;SDS011;4940;50.900;4.672;2022-11-20T00:26:17;28.83;;;14.77;;
9801;SDS011;4940;50.900;4.672;2022-11-20T00:28:48;27.67;;;13.87;;
9801;SDS011;4940;50.900;4.672;2022-11-20T00:31:17;29.77;;;14.90;;
9801;SDS011;4940;50.900;4.672;2022-11-20T00:33:46;26.13;;;13.83;;
9801;SDS011;4940;50.900;4.672;2022-11-20T00:36:14;27.93;;;13.60;;
9801;SDS011;4940;50.900;4.672;2022-11-20T00:38:43;26.87;;;13.47;;
9801;SDS011;4940;50.900;4.672;2022-11-20T00:41:11;32.73;;;15.00;;
9801;SDS011;4940;50.900;4.672;2022-11-20T00:43:39;30.53;;;15.37;;
9801;SDS011;4940;50.900;4.672;2022-11-20T00:46:08;29.90;;;14.03;;
9801;SDS011;4940;50.900;4.672;2022-11-20T00:48:36;28.90;;;14.50;;
9801;SDS011;4940;50.900;4.672;2022-11-20T00:51:05;25.83;;;12.97;;
9801;SDS011;4940;50.900;4.672;2022-11-20T00:53:32;28.97;;;14.83;;
9801;SDS011;4940;50.900;4.672;2022-11-20T00:56:00;27.53;;;13.50;;
9801;SDS011;4940;50.900;4.672;2022-11-20T00:58:28;28.83;;;14.77;;
9801;SDS011;4940;50.900;4.672;2022-11-20T01:00:59;29.30;;;14.53;;
9801;SDS011;4940;50.900;4.672;2022-11-20T01:03:27;33.63;;;14.07;;
9801;SDS011;4940;50.900;4.672;2022-11-20T01:05:54;27.90;;;14.33;;
9801;SDS011;4940;50.900;4.672;2022-11-20T01:08:30;31.30;;;14.43;;
9801;SDS011;4940;50.900;4.672;2022-11-20T01:11:01;29.47;;;15.57;;
9801;SDS011;4940;50.900;4.672;2022-11-20T01:13:29;29.50;;;13.70;;
9801;SDS011;4940;50.900;4.672;2022-11-20T01:16:06;34.73;;;15.20;;
9801;SDS011;4940;50.900;4.672;2022-11-20T01:18:35;30.60;;;14.03;;
9801;SDS011;4940;50.900;4.672;2022-11-20T01:21:04;30.67;;;14.53;;
9801;SDS011;4940;50.900;4.672;2022-11-20T01:23:35;35.50;;;14.70;;
9801;SDS011;4940;50.900;4.672;2022-11-20T01:26:04;32.83;;;15.10;;
9801;SDS011;4940;50.900;4.672;2022-11-20T01:28:33;28.13;;;14.07;;
9801;SDS011;4940;50.900;4.672;2022-11-20T01:31:01;32.07;;;14.43;;
9801;SDS011;4940;50.900;4.672;2022-11-20T01:33:36;33.23;;;15.87;;
9801;SDS011;4940;50.900;4.672;2022-11-20T01:36:04;31.23;;;14.57;;
9801;SDS011;4940;50.900;4.672;2022-11-20T01:38:31;33.73;;;15.40;;
9801;SDS011;4940;50.900;4.672;2022-11-20T01:41:00;32.07;;;15.13;;
9801;SDS011;4940;50.900;4.672;2022-11-20T01:43:27;31.47;;;14.33;;
9801;SDS011;4940;50.900;4.672;2022-11-20T01:46:01;31.73;;;15.57;;
9801;SDS011;4940;50.900;4.672;2022-11-20T01:48:40;33.23;;;14.70;;
9801;SDS011;4940;50.900;4.672;2022-11-20T01:51:15;34.40;;;15.97;;
9801;SDS011;4940;50.900;4.672;2022-11-20T01:53:47;30.50;;;14.87;;
9801;SDS011;4940;50.900;4.672;2022-11-20T01:56:17;28.03;;;14.07;;
9801;SDS011;4940;50.900;4.672;2022-11-20T01:58:46;31.13;;;14.90;;
9801;SDS011;4940;50.900;4.672;2022-11-20T02:01:18;32.07;;;14.37;;
9801;SDS011;4940;50.900;4.672;2022-11-20T02:03:45;37.73;;;15.57;;
9801;SDS011;4940;50.900;4.672;2022-11-20T02:06:16;37.33;;;15.70;;
9801;SDS011;4940;50.900;4.672;2022-11-20T02:08:47;33.77;;;16.07;;
9801;SDS011;4940;50.900;4.672;2022-11-20T02:11:14;41.43;;;16.00;;
9801;SDS011;4940;50.900;4.672;2022-11-20T02:13:43;37.87;;;16.97;;
9801;SDS011;4940;50.900;4.672;2022-11-20T02:16:14;34.47;;;15.73;;
9801;SDS011;4940;50.900;4.672;2022-11-20T02:18:44;40.23;;;16.83;;
9801;SDS011;4940;50.900;4.672;2022-11-20T02:21:19;31.70;;;15.43;;
9801;SDS011;4940;50.900;4.672;2022-11-20T02:24:02;32.53;;;16.10;;
9801;SDS011;4940;50.900;4.672;2022-11-20T02:26:36;34.80;;;16.10;;
9801;SDS011;4940;50.900;4.672;2022-11-20T02:29:07;36.20;;;16.73;;
9801;SDS011;4940;50.900;4.672;2022-11-20T02:31:37;32.30;;;15.60;;
9801;SDS011;4940;50.900;4.672;2022-11-20T02:34:07;36.47;;;16.07;;
9801;SDS011;4940;50.900;4.672;2022-11-20T02:36:34;33.83;;;15.20;;
9801;SDS011;4940;50.900;4.672;2022-11-20T02:39:05;32.30;;;15.83;;
9801;SDS011;4940;50.900;4.672;2022-11-20T02:41:33;28.93;;;14.03;;
9801;SDS011;4940;50.900;4.672;2022-11-20T02:44:03;35.97;;;16.17;;
9801;SDS011;4940;50.900;4.672;2022-11-20T02:46:31;36.87;;;16.43;;
9801;SDS011;4940;50.900;4.672;2022-11-20T02:48:58;41.97;;;17.10;;
9801;SDS011;4940;50.900;4.672;2022-11-20T02:51:25;43.23;;;15.43;;
9801;SDS011;4940;50.900;4.672;2022-11-20T02:53:53;39.63;;;17.27;;
9801;SDS011;4940;50.900;4.672;2022-11-20T02:56:21;41.40;;;17.77;;
9801;SDS011;4940;50.900;4.672;2022-11-20T02:58:49;42.60;;;17.93;;
9801;SDS011;4940;50.900;4.672;2022-11-20T03:01:16;41.03;;;17.40;;
9801;SDS011;4940;50.900;4.672;2022-11-20T03:03:44;40.33;;;18.03;;
9801;SDS011;4940;50.900;4.672;2022-11-20T03:06:13;39.07;;;17.33;;
9801;SDS011;4940;50.900;4.672;2022-11-20T03:08:41;43.03;;;17.27;;
9801;SDS011;4940;50.900;4.672;2022-11-20T03:11:08;35.43;;;17.27;;
9801;SDS011;4940;50.900;4.672;2022-11-20T03:13:37;42.40;;;17.73;;
9801;SDS011;4940;50.900;4.672;2022-11-20T03:16:05;39.27;;;16.83;;
9801;SDS011;4940;50.900;4.672;2022-11-20T03:18:34;45.03;;;16.83;;
9801;SDS011;4940;50.900;4.672;2022-11-20T03:21:01;36.87;;;16.93;;
9801;SDS011;4940;50.900;4.672;2022-11-20T03:23:29;42.60;;;18.43;;
9801;SDS011;4940;50.900;4.672;2022-11-20T03:26:07;40.13;;;17.13;;
9801;SDS011;4940;50.900;4.672;2022-11-20T03:28:39;38.57;;;17.70;;
9801;SDS011;4940;50.900;4.672;2022-11-20T03:31:10;47.27;;;18.37;;
9801;SDS011;4940;50.900;4.672;2022-11-20T03:33:39;45.70;;;18.47;;
9801;SDS011;4940;50.900;4.672;2022-11-20T03:36:08;42.13;;;17.87;;
9801;SDS011;4940;50.900;4.672;2022-11-20T03:38:36;44.47;;;17.57;;
9801;SDS011;4940;50.900;4.672;2022-11-20T03:41:05;40.33;;;16.33;;
9801;SDS011;4940;50.900;4.672;2022-11-20T03:43:34;49.07;;;18.13;;
9801;SDS011;4940;50.900;4.672;2022-11-20T03:46:02;39.47;;;19.10;;
9801;SDS011;4940;50.900;4.672;2022-11-20T03:48:30;46.73;;;19.13;;
9801;SDS011;4940;50.900;4.672;2022-11-20T03:51:07;45.10;;;18.60;;
9801;SDS011;4940;50.900;4.672;2022-11-20T03:53:36;52.03;;;18.73;;
9801;SDS011;4940;50.900;4.672;2022-11-20T03:56:03;46.77;;;18.30;;
9801;SDS011;4940;50.900;4.672;2022-11-20T03:58:31;50.13;;;19.17;;
9801;SDS011;4940;50.900;4.672;2022-11-20T04:01:05;51.53;;;18.73;;
9801;SDS011;4940;50.900;4.672;2022-11-20T04:03:33;50.13;;;18.70;;
9801;SDS011;4940;50.900;4.672;2022-11-20T04:06:04;50.20;;;19.10;;
9801;SDS011;4940;50.900;4.672;2022-11-20T04:08:32;43.80;;;19.00;;
9801;SDS011;4940;50.900;4.672;2022-11-20T04:11:09;50.77;;;18.67;;
9801;SDS011;4940;50.900;4.672;2022-11-20T04:13:37;41.60;;;19.30;;
9801;SDS011;4940;50.900;4.672;2022-11-20T04:16:07;47.63;;;19.10;;
9801;SDS011;4940;50.900;4.672;2022-11-20T04:18:35;45.50;;;19.27;;
9801;SDS011;4940;50.900;4.672;2022-11-20T04:21:02;52.60;;;18.87;;
9801;SDS011;4940;50.900;4.672;2022-11-20T04:23:31;50.70;;;18.57;;
9801;SDS011;4940;50.900;4.672;2022-11-20T04:26:00;49.30;;;19.13;;
9801;SDS011;4940;50.900;4.672;2022-11-20T04:28:29;44.90;;;18.80;;
9801;SDS011;4940;50.900;4.672;2022-11-20T04:31:01;51.50;;;18.87;;
9801;SDS011;4940;50.900;4.672;2022-11-20T04:33:31;44.90;;;17.67;;
9801;SDS011;4940;50.900;4.672;2022-11-20T04:36:02;47.70;;;17.97;;
9801;SDS011;4940;50.900;4.672;2022-11-20T04:38:30;50.13;;;18.47;;
9801;SDS011;4940;50.900;4.672;2022-11-20T04:40:58;45.97;;;17.87;;
9801;SDS011;4940;50.900;4.672;2022-11-20T04:43:26;38.40;;;16.07;;
9801;SDS011;4940;50.900;4.672;2022-11-20T04:45:54;43.00;;;16.33;;
9801;SDS011;4940;50.900;4.672;2022-11-20T04:48:22;46.90;;;16.93;;
9801;SDS011;4940;50.900;4.672;2022-11-20T04:50:50;44.73;;;15.93;;
9801;SDS011;4940;50.900;4.672;2022-11-20T04:53:18;41.30;;;15.93;;
9801;SDS011;4940;50.900;4.672;2022-11-20T04:55:46;40.03;;;15.57;;
9801;SDS011;4940;50.900;4.672;2022-11-20T04:58:14;38.20;;;15.10;;
9801;SDS011;4940;50.900;4.672;2022-11-20T05:00:41;42.13;;;15.67;;
9801;SDS011;4940;50.900;4.672;2022-11-20T05:03:08;38.90;;;15.30;;
9801;SDS011;4940;50.900;4.672;2022-11-20T05:05:36;34.77;;;14.73;;
9801;SDS011;4940;50.900;4.672;2022-11-20T05:08:05;36.70;;;15.13;;
9801;SDS011;4940;50.900;4.672;2022-11-20T05:10:32;32.00;;;14.20;;
9801;SDS011;4940;50.900;4.672;2022-11-20T05:12:59;37.60;;;13.50;;
9801;SDS011;4940;50.900;4.672;2022-11-20T05:15:27;34.30;;;14.00;;
9801;SDS011;4940;50.900;4.672;2022-11-20T05:17:54;33.10;;;14.17;;
9801;SDS011;4940;50.900;4.672;2022-11-20T05:20:21;29.47;;;13.53;;
9801;SDS011;4940;50.900;4.672;2022-11-20T05:22:49;31.07;;;13.90;;
9801;SDS011;4940;50.900;4.672;2022-11-20T05:25:18;27.13;;;12.90;;
9801;SDS011;4940;50.900;4.672;2022-11-20T05:27:45;33.90;;;14.23;;
9801;SDS011;4940;50.900;4.672;2022-11-20T05:30:13;30.10;;;13.80;;
9801;SDS011;4940;50.900;4.672;2022-11-20T05:32:40;33.60;;;12.90;;
9801;SDS011;4940;50.900;4.672;2022-11-20T05:35:08;31.50;;;12.37;;
9801;SDS011;4940;50.900;4.672;2022-11-20T05:37:35;36.77;;;14.03;;
9801;SDS011;4940;50.900;4.672;2022-11-20T05:40:03;31.37;;;11.87;;
9801;SDS011;4940;50.900;4.672;2022-11-20T05:42:31;31.63;;;12.97;;
9801;SDS011;4940;50.900;4.672;2022-11-20T05:44:59;33.57;;;13.50;;
9801;SDS011;4940;50.900;4.672;2022-11-20T05:47:27;31.10;;;12.73;;
9801;SDS011;4940;50.900;4.672;2022-11-20T05:49:57;32.97;;;13.73;;
9801;SDS011;4940;50.900;4.672;2022-11-20T05:52:27;34.73;;;14.70;;
9801;SDS011;4940;50.900;4.672;2022-11-20T05:54:54;32.97;;;13.47;;
9801;SDS011;4940;50.900;4.672;2022-11-20T05:57:22;31.57;;;12.93;;
9801;SDS011;4940;50.900;4.672;2022-11-20T05:59:50;32.40;;;13.77;;
9801;SDS011;4940;50.900;4.672;2022-11-20T06:02:17;35.87;;;13.40;;
9801;SDS011;4940;50.900;4.672;2022-11-20T06:04:45;31.70;;;12.70;;
9801;SDS011;4940;50.900;4.672;2022-11-20T06:07:13;41.40;;;15.00;;
9801;SDS011;4940;50.900;4.672;2022-11-20T06:09:40;34.40;;;14.00;;
9801;SDS011;4940;50.900;4.672;2022-11-20T06:12:07;36.13;;;14.77;;
9801;SDS011;4940;50.900;4.672;2022-11-20T06:14:35;35.20;;;14.20;;
9801;SDS011;4940;50.900;4.672;2022-11-20T06:17:03;36.50;;;14.67;;
9801;SDS011;4940;50.900;4.672;2022-11-20T06:19:31;31.07;;;13.30;;
9801;SDS011;4940;50.900;4.672;2022-11-20T06:21:58;35.53;;;14.07;;
9801;SDS011;4940;50.900;4.672;2022-11-20T06:24:25;34.10;;;14.40;;
9801;SDS011;4940;50.900;4.672;2022-11-20T06:26:53;28.20;;;13.20;;
9801;SDS011;4940;50.900;4.672;2022-11-20T06:29:20;37.63;;;13.50;;
9801;SDS011;4940;50.900;4.672;2022-11-20T06:31:48;38.23;;;13.63;;
9801;SDS011;4940;50.900;4.672;2022-11-20T06:34:16;34.73;;;13.40;;
9801;SDS011;4940;50.900;4.672;2022-11-20T06:36:44;35.63;;;13.17;;
9801;SDS011;4940;50.900;4.672;2022-11-20T06:39:11;35.50;;;13.50;;
9801;SDS011;4940;50.900;4.672;2022-11-20T06:41:39;37.37;;;14.37;;
9801;SDS011;4940;50.900;4.672;2022-11-20T06:44:06;42.03;;;14.10;;
9801;SDS011;4940;50.900;4.672;2022-11-20T06:46:33;39.60;;;13.53;;
9801;SDS011;4940;50.900;4.672;2022-11-20T06:49:01;34.83;;;13.67;;
9801;SDS011;4940;50.900;4.672;2022-11-20T06:51:30;38.57;;;13.83;;
9801;SDS011;4940;50.900;4.672;2022-11-20T06:53:57;35.47;;;14.27;;
9801;SDS011;4940;50.900;4.672;2022-11-20T06:56:26;44.10;;;14.77;;
9801;SDS011;4940;50.900;4.672;2022-11-20T06:58:54;37.67;;;13.80;;
9801;SDS011;4940;50.900;4.672;2022-11-20T07:01:21;57.17;;;15.67;;
9801;SDS011;4940;50.900;4.672;2022-11-20T07:03:48;51.33;;;16.00;;
9801;SDS011;4940;50.900;4.672;2022-11-20T07:06:16;52.20;;;15.80;;
9801;SDS011;4940;50.900;4.672;2022-11-20T07:08:45;48.27;;;15.40;;
9801;SDS011;4940;50.900;4.672;2022-11-20T07:11:13;45.77;;;15.27;;
9801;SDS011;4940;50.900;4.672;2022-11-20T07:13:40;54.10;;;16.83;;
9801;SDS011;4940;50.900;4.672;2022-11-20T07:16:07;53.33;;;14.77;;
9801;SDS011;4940;50.900;4.672;2022-11-20T07:18:35;58.93;;;16.53;;
9801;SDS011;4940;50.900;4.672;2022-11-20T07:21:03;68.20;;;16.13;;
9801;SDS011;4940;50.900;4.672;2022-11-20T07:23:32;52.53;;;15.80;;
9801;SDS011;4940;50.900;4.672;2022-11-20T07:26:03;55.70;;;15.93;;
9801;SDS011;4940;50.900;4.672;2022-11-20T07:28:31;55.80;;;16.27;;
9801;SDS011;4940;50.900;4.672;2022-11-20T07:30:58;63.37;;;15.90;;
9801;SDS011;4940;50.900;4.672;2022-11-20T07:33:25;60.30;;;15.50;;
9801;SDS011;4940;50.900;4.672;2022-11-20T07:35:53;65.37;;;15.37;;
9801;SDS011;4940;50.900;4.672;2022-11-20T07:38:20;57.80;;;16.83;;
9801;SDS011;4940;50.900;4.672;2022-11-20T07:40:48;57.47;;;16.93;;
9801;SDS011;4940;50.900;4.672;2022-11-20T07:43:16;59.63;;;18.03;;
9801;SDS011;4940;50.900;4.672;2022-11-20T07:45:43;53.60;;;15.97;;
9801;SDS011;4940;50.900;4.672;2022-11-20T07:48:11;69.70;;;16.07;;
9801;SDS011;4940;50.900;4.672;2022-11-20T07:50:38;58.07;;;16.80;;
9801;SDS011;4940;50.900;4.672;2022-11-20T07:53:06;70.80;;;17.17;;
9801;SDS011;4940;50.900;4.672;2022-11-20T07:55:33;63.30;;;17.87;;
9801;SDS011;4940;50.900;4.672;2022-11-20T07:58:01;64.33;;;18.30;;
9801;SDS011;4940;50.900;4.672;2022-11-20T08:00:30;63.80;;;16.83;;
9801;SDS011;4940;50.900;4.672;2022-11-20T08:02:57;56.27;;;17.03;;
9801;SDS011;4940;50.900;4.672;2022-11-20T08:05:25;52.53;;;16.20;;
9801;SDS011;4940;50.900;4.672;2022-11-20T08:07:52;60.03;;;15.93;;
9801;SDS011;4940;50.900;4.672;2022-11-20T08:10:19;66.43;;;18.17;;
9801;SDS011;4940;50.900;4.672;2022-11-20T08:12:47;55.80;;;16.73;;
9801;SDS011;4940;50.900;4.672;2022-11-20T08:15:34;57.60;;;16.43;;
9801;SDS011;4940;50.900;4.672;2022-11-20T08:18:02;50.03;;;15.97;;
9801;SDS011;4940;50.900;4.672;2022-11-20T08:20:30;60.30;;;16.90;;
9801;SDS011;4940;50.900;4.672;2022-11-20T08:22:58;66.23;;;17.13;;
9801;SDS011;4940;50.900;4.672;2022-11-20T08:25:26;55.42;;;17.08;;
9801;SDS011;4940;50.900;4.672;2022-11-20T08:27:54;53.00;;;16.83;;
9801;SDS011;4940;50.900;4.672;2022-11-20T08:30:21;57.03;;;17.17;;
9801;SDS011;4940;50.900;4.672;2022-11-20T08:32:50;54.07;;;16.13;;
9801;SDS011;4940;50.900;4.672;2022-11-20T08:35:17;54.17;;;16.60;;
9801;SDS011;4940;50.900;4.672;2022-11-20T08:37:45;62.83;;;17.05;;
9801;SDS011;4940;50.900;4.672;2022-11-20T08:40:13;51.10;;;16.13;;
9801;SDS011;4940;50.900;4.672;2022-11-20T08:42:45;61.20;;;17.07;;
9801;SDS011;4940;50.900;4.672;2022-11-20T08:45:13;65.60;;;17.53;;
9801;SDS011;4940;50.900;4.672;2022-11-20T08:47:41;66.93;;;18.27;;
9801;SDS011;4940;50.900;4.672;2022-11-20T08:50:11;52.57;;;16.10;;
9801;SDS011;4940;50.900;4.672;2022-11-20T08:52:39;59.13;;;17.37;;
9801;SDS011;4940;50.900;4.672;2022-11-20T08:55:07;56.53;;;17.20;;
9801;SDS011;4940;50.900;4.672;2022-11-20T08:57:35;55.73;;;16.50;;
9801;SDS011;4940;50.900;4.672;2022-11-20T09:00:03;67.63;;;16.38;;
9801;SDS011;4940;50.900;4.672;2022-11-20T09:02:31;61.43;;;16.03;;
9801;SDS011;4940;50.900;4.672;2022-11-20T09:04:59;59.90;;;16.37;;
9801;SDS011;4940;50.900;4.672;2022-11-20T09:07:28;57.85;;;17.23;;
9801;SDS011;4940;50.900;4.672;2022-11-20T09:09:56;53.47;;;16.10;;
9801;SDS011;4940;50.900;4.672;2022-11-20T09:12:24;51.77;;;16.77;;
9801;SDS011;4940;50.900;4.672;2022-11-20T09:14:51;53.90;;;16.53;;
9801;SDS011;4940;50.900;4.672;2022-11-20T09:17:18;58.10;;;16.77;;
9801;SDS011;4940;50.900;4.672;2022-11-20T09:19:46;52.60;;;15.83;;
9801;SDS011;4940;50.900;4.672;2022-11-20T09:22:14;57.50;;;15.70;;
9801;SDS011;4940;50.900;4.672;2022-11-20T09:24:43;54.30;;;14.93;;
9801;SDS011;4940;50.900;4.672;2022-11-20T09:27:10;53.60;;;15.47;;
9801;SDS011;4940;50.900;4.672;2022-11-20T09:29:37;51.67;;;16.27;;
9801;SDS011;4940;50.900;4.672;2022-11-20T09:32:05;53.97;;;15.10;;
9801;SDS011;4940;50.900;4.672;2022-11-20T09:34:32;49.10;;;16.23;;
9801;SDS011;4940;50.900;4.672;2022-11-20T09:37:00;52.90;;;15.17;;
9801;SDS011;4940;50.900;4.672;2022-11-20T09:39:27;54.63;;;15.27;;
9801;SDS011;4940;50.900;4.672;2022-11-20T09:42:06;51.27;;;16.03;;
9801;SDS011;4940;50.900;4.672;2022-11-20T09:44:56;49.73;;;14.70;;
9801;SDS011;4940;50.900;4.672;2022-11-20T09:47:34;49.78;;;13.88;;
9801;SDS011;4940;50.900;4.672;2022-11-20T09:50:19;48.50;;;15.25;;
9801;SDS011;4940;50.900;4.672;2022-11-20T09:52:56;50.40;;;15.13;;
9801;SDS011;4940;50.900;4.672;2022-11-20T09:55:29;47.08;;;14.55;;
9801;SDS011;4940;50.900;4.672;2022-11-20T09:57:59;50.00;;;14.90;;
9801;SDS011;4940;50.900;4.672;2022-11-20T10:00:26;45.35;;;15.30;;
9801;SDS011;4940;50.900;4.672;2022-11-20T10:02:55;44.00;;;13.30;;
9801;SDS011;4940;50.900;4.672;2022-11-20T10:05:28;38.13;;;13.32;;
9801;SDS011;4940;50.900;4.672;2022-11-20T10:08:10;40.40;;;13.45;;
9801;SDS011;4940;50.900;4.672;2022-11-20T10:10:44;44.85;;;14.05;;
9801;SDS011;4940;50.900;4.672;2022-11-20T10:13:17;46.55;;;14.35;;
9801;SDS011;4940;50.900;4.672;2022-11-20T10:15:56;41.88;;;12.73;;
9801;SDS011;4940;50.900;4.672;2022-11-20T10:18:34;42.75;;;13.88;;
9801;SDS011;4940;50.900;4.672;2022-11-20T10:21:10;40.53;;;13.35;;
9801;SDS011;4940;50.900;4.672;2022-11-20T10:26:51;39.65;;;14.23;;
9801;SDS011;4940;50.900;4.672;2022-11-20T10:29:29;32.75;;;12.93;;
9801;SDS011;4940;50.900;4.672;2022-11-20T10:32:00;34.33;;;13.30;;
9801;SDS011;4940;50.900;4.672;2022-11-20T10:34:30;43.60;;;13.80;;
9801;SDS011;4940;50.900;4.672;2022-11-20T10:37:02;38.42;;;13.18;;
9801;SDS011;4940;50.900;4.672;2022-11-20T10:39:38;33.08;;;12.27;;
9801;SDS011;4940;50.900;4.672;2022-11-20T10:42:11;38.33;;;13.18;;
9801;SDS011;4940;50.900;4.672;2022-11-20T10:44:46;31.90;;;12.68;;
9801;SDS011;4940;50.900;4.672;2022-11-20T10:47:30;37.30;;;12.75;;
9801;SDS011;4940;50.900;4.672;2022-11-20T10:49:57;27.05;;;12.02;;
9801;SDS011;4940;50.900;4.672;2022-11-20T10:52:29;33.38;;;11.70;;
9801;SDS011;4940;50.900;4.672;2022-11-20T10:55:05;30.85;;;12.18;;
9801;SDS011;4940;50.900;4.672;2022-11-20T10:57:44;32.38;;;11.05;;
9801;SDS011;4940;50.900;4.672;2022-11-20T11:00:20;32.42;;;11.35;;
9801;SDS011;4940;50.900;4.672;2022-11-20T11:02:48;29.60;;;10.65;;
9801;SDS011;4940;50.900;4.672;2022-11-20T11:05:18;23.60;;;10.52;;
9801;SDS011;4940;50.900;4.672;2022-11-20T11:07:51;27.15;;;10.23;;
9801;SDS011;4940;50.900;4.672;2022-11-20T11:10:21;23.70;;;9.32;;
9801;SDS011;4940;50.900;4.672;2022-11-20T11:12:52;18.10;;;9.52;;
9801;SDS011;4940;50.900;4.672;2022-11-20T11:15:28;19.40;;;8.98;;
9801;SDS011;4940;50.900;4.672;2022-11-20T11:18:01;18.00;;;8.00;;
9801;SDS011;4940;50.900;4.672;2022-11-20T11:20:29;21.92;;;8.35;;
9801;SDS011;4940;50.900;4.672;2022-11-20T11:22:57;18.95;;;7.72;;
9801;SDS011;4940;50.900;4.672;2022-11-20T11:25:27;14.65;;;7.57;;
9801;SDS011;4940;50.900;4.672;2022-11-20T11:27:56;14.88;;;6.88;;
9801;SDS011;4940;50.900;4.672;2022-11-20T11:30:25;13.70;;;6.15;;
9801;SDS011;4940;50.900;4.672;2022-11-20T11:33:04;18.27;;;5.60;;
9801;SDS011;4940;50.900;4.672;2022-11-20T11:35:32;10.63;;;5.45;;
9801;SDS011;4940;50.900;4.672;2022-11-20T11:38:04;10.75;;;5.20;;
9801;SDS011;4940;50.900;4.672;2022-11-20T11:40:33;8.43;;;4.03;;
9801;SDS011;4940;50.900;4.672;2022-11-20T11:43:04;9.52;;;4.15;;
9801;SDS011;4940;50.900;4.672;2022-11-20T11:45:55;6.10;;;3.60;;
9801;SDS011;4940;50.900;4.672;2022-11-20T11:48:22;5.20;;;3.30;;
9801;SDS011;4940;50.900;4.672;2022-11-20T11:50:50;6.47;;;3.65;;
9801;SDS011;4940;50.900;4.672;2022-11-20T11:53:19;5.78;;;3.35;;
9801;SDS011;4940;50.900;4.672;2022-11-20T11:55:50;7.28;;;3.50;;
9801;SDS011;4940;50.900;4.672;2022-11-20T11:58:40;7.40;;;2.92;;
9801;SDS011;4940;50.900;4.672;2022-11-20T12:01:16;7.38;;;2.83;;
9801;SDS011;4940;50.900;4.672;2022-11-20T12:03:54;4.43;;;2.83;;
9801;SDS011;4940;50.900;4.672;2022-11-20T12:06:28;5.65;;;2.67;;
9801;SDS011;4940;50.900;4.672;2022-11-20T12:08:58;3.67;;;2.40;;
9801;SDS011;4940;50.900;4.672;2022-11-20T12:11:30;4.13;;;2.10;;
9801;SDS011;4940;50.900;4.672;2022-11-20T12:14:02;2.85;;;2.28;;
9801;SDS011;4940;50.900;4.672;2022-11-20T12:16:46;5.95;;;2.30;;
9801;SDS011;4940;50.900;4.672;2022-11-20T12:19:13;5.53;;;2.17;;
9801;SDS011;4940;50.900;4.672;2022-11-20T12:22:00;5.22;;;2.00;;
9801;SDS011;4940;50.900;4.672;2022-11-20T12:30:27;8.55;;;2.05;;
9801;SDS011;4940;50.900;4.672;2022-11-20T12:33:06;5.13;;;1.88;;
9801;SDS011;4940;50.900;4.672;2022-11-20T12:36:01;5.03;;;2.13;;
9801;SDS011;4940;50.900;4.672;2022-11-20T12:38:42;9.07;;;2.28;;
9801;SDS011;4940;50.900;4.672;2022-11-20T12:41:20;2.60;;;1.85;;
9801;SDS011;4940;50.900;4.672;2022-11-20T12:44:23;3.90;;;2.00;;
9801;SDS011;4940;50.900;4.672;2022-11-20T12:47:22;2.63;;;1.95;;
9801;SDS011;4940;50.900;4.672;2022-11-20T12:50:01;4.47;;;2.03;;
9801;SDS011;4940;50.900;4.672;2022-11-20T12:52:37;3.78;;;1.60;;
9801;SDS011;4940;50.900;4.672;2022-11-20T12:58:04;5.25;;;1.95;;
9801;SDS011;4940;50.900;4.672;2022-11-20T13:00:39;3.65;;;1.67;;
9801;SDS011;4940;50.900;4.672;2022-11-20T13:03:14;3.20;;;2.13;;
9801;SDS011;4940;50.900;4.672;2022-11-20T13:05:57;5.90;;;2.35;;
9801;SDS011;4940;50.900;4.672;2022-11-20T13:08:32;4.15;;;2.20;;
9801;SDS011;4940;50.900;4.672;2022-11-20T13:11:02;2.90;;;1.83;;
9801;SDS011;4940;50.900;4.672;2022-11-20T13:13:40;6.70;;;2.00;;
9801;SDS011;4940;50.900;4.672;2022-11-20T13:16:16;3.53;;;2.30;;
9801;SDS011;4940;50.900;4.672;2022-11-20T13:18:49;7.50;;;2.72;;
9801;SDS011;4940;50.900;4.672;2022-11-20T13:21:20;5.82;;;2.20;;
9801;SDS011;4940;50.900;4.672;2022-11-20T13:23:48;5.43;;;2.40;;
9801;SDS011;4940;50.900;4.672;2022-11-20T13:26:19;6.85;;;2.50;;
9801;SDS011;4940;50.900;4.672;2022-11-20T13:28:59;4.07;;;2.47;;
9801;SDS011;4940;50.900;4.672;2022-11-20T13:31:30;6.28;;;2.30;;
9801;SDS011;4940;50.900;4.672;2022-11-20T13:33:59;7.68;;;2.17;;
9801;SDS011;4940;50.900;4.672;2022-11-20T13:36:29;5.32;;;2.50;;
9801;SDS011;4940;50.900;4.672;2022-11-20T13:38:57;5.28;;;2.30;;
9801;SDS011;4940;50.900;4.672;2022-11-20T13:41:26;3.70;;;2.40;;
9801;SDS011;4940;50.900;4.672;2022-11-20T13:44:04;3.83;;;2.17;;
9801;SDS011;4940;50.900;4.672;2022-11-20T13:46:37;5.68;;;2.40;;
9801;SDS011;4940;50.900;4.672;2022-11-20T13:49:16;4.55;;;2.13;;
9801;SDS011;4940;50.900;4.672;2022-11-20T13:51:46;3.60;;;1.98;;
9801;SDS011;4940;50.900;4.672;2022-11-20T13:54:20;5.45;;;2.50;;
9801;SDS011;4940;50.900;4.672;2022-11-20T13:57:01;4.72;;;2.15;;
9801;SDS011;4940;50.900;4.672;2022-11-20T13:59:39;3.35;;;2.20;;
9801;SDS011;4940;50.900;4.672;2022-11-20T14:02:12;6.65;;;2.05;;
9801;SDS011;4940;50.900;4.672;2022-11-20T14:04:43;3.45;;;1.80;;
9801;SDS011;4940;50.900;4.672;2022-11-20T14:07:16;4.50;;;2.25;;
9801;SDS011;4940;50.900;4.672;2022-11-20T14:09:50;7.85;;;2.38;;
9801;SDS011;4940;50.900;4.672;2022-11-20T14:12:19;4.35;;;2.05;;
9801;SDS011;4940;50.900;4.672;2022-11-20T14:14:48;4.53;;;2.25;;
9801;SDS011;4940;50.900;4.672;2022-11-20T14:17:18;3.83;;;2.00;;
9801;SDS011;4940;50.900;4.672;2022-11-20T14:19:47;8.55;;;2.47;;
9801;SDS011;4940;50.900;4.672;2022-11-20T14:22:19;5.35;;;2.45;;
9801;SDS011;4940;50.900;4.672;2022-11-20T14:24:47;3.05;;;1.98;;
9801;SDS011;4940;50.900;4.672;2022-11-20T14:27:15;3.58;;;1.95;;
9801;SDS011;4940;50.900;4.672;2022-11-20T14:29:44;5.18;;;2.15;;
9801;SDS011;4940;50.900;4.672;2022-11-20T14:32:14;3.70;;;2.10;;
9801;SDS011;4940;50.900;4.672;2022-11-20T14:34:44;3.70;;;2.08;;
9801;SDS011;4940;50.900;4.672;2022-11-20T14:37:12;2.53;;;2.00;;
9801;SDS011;4940;50.900;4.672;2022-11-20T14:39:49;3.63;;;2.13;;
9801;SDS011;4940;50.900;4.672;2022-11-20T14:42:18;4.13;;;2.03;;
9801;SDS011;4940;50.900;4.672;2022-11-20T14:44:47;3.00;;;1.90;;
9801;SDS011;4940;50.900;4.672;2022-11-20T14:47:17;1.85;;;1.55;;
9801;SDS011;4940;50.900;4.672;2022-11-20T14:49:47;3.08;;;1.88;;
9801;SDS011;4940;50.900;4.672;2022-11-20T14:52:16;5.57;;;2.13;;
9801;SDS011;4940;50.900;4.672;2022-11-20T14:54:45;4.00;;;1.88;;
9801;SDS011;4940;50.900;4.672;2022-11-20T14:57:24;3.95;;;1.70;;
9801;SDS011;4940;50.900;4.672;2022-11-20T15:00:04;3.28;;;1.60;;
9801;SDS011;4940;50.900;4.672;2022-11-20T15:02:33;1.77;;;1.40;;
9801;SDS011;4940;50.900;4.672;2022-11-20T15:05:01;1.98;;;1.70;;
9801;SDS011;4940;50.900;4.672;2022-11-20T15:07:30;1.95;;;1.70;;
9801;SDS011;4940;50.900;4.672;2022-11-20T15:09:59;2.58;;;1.65;;
9801;SDS011;4940;50.900;4.672;2022-11-20T15:12:29;1.60;;;1.50;;
9801;SDS011;4940;50.900;4.672;2022-11-20T15:14:57;2.20;;;1.92;;
9801;SDS011;4940;50.900;4.672;2022-11-20T15:17:25;2.03;;;1.55;;
9801;SDS011;4940;50.900;4.672;2022-11-20T15:19:52;3.47;;;1.80;;
9801;SDS011;4940;50.900;4.672;2022-11-20T15:22:20;3.30;;;2.35;;
9801;SDS011;4940;50.900;4.672;2022-11-20T15:24:47;3.15;;;2.10;;
9801;SDS011;4940;50.900;4.672;2022-11-20T15:27:15;3.15;;;2.17;;